Time;durP1;ratioP1;P1;durP2;ratioP2;P2;SDS_P1;SDS_P2;PMS_P1;PMS_P2;Temp;Humidity;BMP_temperature;BMP_pressure;BME280_temperature;BME280_humidity;BME280_pressure;Samples;Min_cycle;Max_cycle;Signal;HPM_P1;HPM_P2
2022/06/07 00:01:37;;;;;;;33.28;23.55;;;;;;;12.15;100.00;101238.94;5070228;28;20035;-49
2022/06/07 00:04:04;;;;;;;35.22;25.50;;;;;;;12.15;100.00;101233.38;5071148;28;20032;-50
2022/06/07 00:06:30;;;;;;;34.90;24.65;;;;;;;12.16;100.00;101225.91;5071526;28;20016;-47
2022/06/07 00:08:55;;;;;;;35.35;24.40;;;;;;;12.14;100.00;101223.41;5071866;28;20541;-50
2022/06/07 00:11:21;;;;;;;35.03;25.35;;;;;;;12.14;100.00;101223.41;5072034;28;20032;-48
2022/06/07 00:13:47;;;;;;;36.47;25.35;;;;;;;12.14;100.00;101226.19;5072169;28;20062;-48
2022/06/07 00:16:17;;;;;;;34.60;25.00;;;;;;;12.19;100.00;101225.25;5072165;28;20029;-50
2022/06/07 00:18:42;;;;;;;36.03;25.77;;;;;;;12.17;100.00;101217.25;5071832;28;20047;-50
2022/06/07 00:21:08;;;;;;;36.58;25.60;;;;;;;12.21;100.00;101220.25;5071140;28;20467;-48
2022/06/07 00:23:34;;;;;;;36.85;26.40;;;;;;;12.18;100.00;101215.31;5071453;28;20048;-51
2022/06/07 00:26:01;;;;;;;36.42;27.08;;;;;;;12.20;100.00;101215.00;5070853;28;20048;-51
2022/06/07 00:28:28;;;;;;;35.90;27.52;;;;;;;12.18;100.00;101209.78;5071054;28;20027;-51
2022/06/07 00:30:53;;;;;;;37.05;27.48;;;;;;;12.19;100.00;101210.59;5071296;28;20126;-51
2022/06/07 00:33:21;;;;;;;37.58;27.10;;;;;;;12.10;100.00;101199.38;5087303;28;20489;-48
2022/06/07 00:35:46;;;;;;;36.58;27.20;;;;;;;12.17;100.00;101206.16;5111714;28;20106;-49
2022/06/07 00:38:12;;;;;;;37.63;26.98;;;;;;;12.17;100.00;101194.28;5112090;28;20066;-48
2022/06/07 00:40:38;;;;;;;37.15;26.48;;;;;;;12.09;100.00;101189.44;5111901;28;20031;-47
2022/06/07 00:43:04;;;;;;;38.17;25.90;;;;;;;12.17;100.00;101191.50;5111304;28;20027;-48
2022/06/07 00:45:30;;;;;;;35.78;26.30;;;;;;;12.17;100.00;101197.03;5111488;28;20106;-47
2022/06/07 00:47:56;;;;;;;37.53;26.38;;;;;;;12.17;100.00;101194.28;5111549;28;20035;-47
2022/06/07 00:50:27;;;;;;;36.38;27.58;;;;;;;12.15;100.00;101196.53;5111116;28;20529;-49
2022/06/07 00:52:52;;;;;;;38.42;27.55;;;;;;;12.18;100.00;101195.91;5112711;28;20042;-47
2022/06/07 00:55:18;;;;;;;38.55;26.92;;;;;;;12.15;100.00;101193.75;5112048;28;20477;-48
2022/06/07 00:57:43;;;;;;;38.55;29.23;;;;;;;12.17;100.00;101197.03;5111775;28;20059;-47
2022/06/07 01:00:13;;;;;;;36.88;26.10;;;;;;;12.18;100.00;101198.69;5112448;28;20051;-47
2022/06/07 01:02:38;;;;;;;37.22;27.50;;;;;;;12.17;100.00;101192.31;5112368;28;20030;-47
2022/06/07 01:05:04;;;;;;;38.45;26.92;;;;;;;12.19;100.00;101196.72;5111478;28;20016;-47
2022/06/07 01:12:57;;;;;;;38.33;28.40;;;;;;;12.21;100.00;101183.38;5112938;28;20042;-46
2022/06/07 01:15:22;;;;;;;35.00;24.95;;;;;;;12.23;100.00;101181.13;5111930;28;20334;-47
2022/06/07 01:17:47;;;;;;;34.65;26.60;;;;;;;12.21;100.00;101180.59;5111689;28;20058;-47
2022/06/07 01:20:14;;;;;;;37.65;26.77;;;;;;;12.20;100.00;101177.00;5111091;28;20470;-46
2022/06/07 01:22:39;;;;;;;37.50;26.15;;;;;;;12.19;100.00;101172.56;5111289;28;20042;-46
2022/06/07 01:25:06;;;;;;;38.70;26.55;;;;;;;12.20;100.00;101167.88;5110584;28;20027;-49
2022/06/07 01:27:31;;;;;;;35.60;26.10;;;;;;;12.22;100.00;101166.41;5111405;28;20028;-46
2022/06/07 01:29:57;;;;;;;35.65;25.67;;;;;;;12.23;100.00;101162.50;5091148;28;20032;-46
2022/06/07 01:32:22;;;;;;;37.10;25.13;;;;;;;12.24;100.00;101163.31;5070550;28;20040;-46
2022/06/07 01:34:47;;;;;;;34.08;24.10;;;;;;;12.29;100.00;101169.59;5070210;28;20032;-46
2022/06/07 01:37:19;;;;;;;32.67;23.55;;;;;;;12.35;100.00;101173.06;5070781;28;20353;-46
2022/06/07 01:42:28;;;;;;;34.58;23.67;;;;;;;12.39;100.00;101162.19;5070636;28;20043;-48
2022/06/07 01:44:54;;;;;;;31.55;22.52;;;;;;;12.34;100.00;101160.34;5070363;28;20081;-47
2022/06/07 01:47:22;;;;;;;31.95;23.40;;;;;;;12.33;100.00;101162.31;5070041;28;20032;-48
2022/06/07 01:49:50;;;;;;;29.80;22.38;;;;;;;12.32;100.00;101151.53;5069639;28;20036;-46
2022/06/07 01:52:18;;;;;;;31.33;22.30;;;;;;;12.30;100.00;101154.59;5072447;28;20036;-46
2022/06/07 01:54:43;;;;;;;32.88;23.23;;;;;;;12.30;100.00;101154.59;5073443;28;20048;-47
2022/06/07 01:57:10;;;;;;;34.80;21.83;;;;;;;12.30;100.00;101151.00;5074007;28;20479;-47
2022/06/07 01:59:36;;;;;;;30.02;20.92;;;;;;;12.28;100.00;101142.16;5074429;28;20032;-47
2022/06/07 02:02:02;;;;;;;31.33;21.33;;;;;;;12.29;100.00;101143.81;5074707;28;20051;-47
2022/06/07 02:04:28;;;;;;;29.83;20.17;;;;;;;12.28;99.48;101136.63;5072887;28;20032;-47
2022/06/07 02:06:53;;;;;;;28.83;20.77;;;;;;;12.25;99.47;101134.44;5074390;28;20020;-47
2022/06/07 02:09:19;;;;;;;28.65;19.77;;;;;;;12.22;99.33;101137.88;5073833;28;20035;-48
2022/06/07 02:11:44;;;;;;;30.38;20.95;;;;;;;12.17;99.74;101136.84;5074151;28;20047;-48
2022/06/07 02:14:10;;;;;;;28.65;20.25;;;;;;;12.15;99.97;101141.88;5073707;28;20101;-47
2022/06/07 02:16:36;;;;;;;30.00;20.23;;;;;;;12.11;99.95;101142.78;5073826;28;20443;-47
2022/06/07 02:19:02;;;;;;;28.92;20.40;;;;;;;12.12;99.96;101144.44;5073808;28;20102;-47
2022/06/07 02:21:28;;;;;;;28.15;19.85;;;;;;;12.14;99.70;101139.41;5074122;28;20044;-48
2022/06/07 02:23:54;;;;;;;28.20;20.25;;;;;;;12.13;99.25;101133.06;5073095;28;20025;-48
2022/06/07 02:26:37;;;;;;;28.98;19.45;;;;;;;12.14;99.42;101128.31;5074769;22;20060;-54
2022/06/07 02:29:12;;;;;;;29.58;20.77;;;;;;;12.17;99.35;101136.03;5054849;28;20025;-56
2022/06/07 02:31:41;;;;;;;26.42;18.95;;;;;;;12.17;99.06;101131.28;5054620;28;20086;-53
2022/06/07 02:34:08;;;;;;;28.77;19.65;;;;;;;12.16;98.82;101123.28;5054721;28;20025;-53
2022/06/07 02:36:35;;;;;;;26.85;18.70;;;;;;;12.10;98.81;101128.13;5054237;28;20031;-52
2022/06/07 02:39:02;;;;;;;28.80;19.25;;;;;;;12.11;98.78;101127.00;5054084;28;20028;-54
2022/06/07 02:41:31;;;;;;;28.17;19.85;;;;;;;12.05;98.81;101121.84;5054433;28;20024;-53
2022/06/07 02:43:56;;;;;;;27.35;18.67;;;;;;;12.07;98.73;101127.91;5054603;28;20111;-55
2022/06/07 02:46:22;;;;;;;25.90;17.75;;;;;;;12.09;97.31;101120.13;5054544;28;20124;-54
2022/06/07 02:48:47;;;;;;;27.48;18.83;;;;;;;12.08;98.49;101118.47;5053970;28;20047;-53
2022/06/07 02:51:13;;;;;;;28.30;18.17;;;;;;;12.13;97.82;101115.56;5053444;28;20445;-55
2022/06/07 02:53:38;;;;;;;25.20;17.08;;;;;;;12.11;97.62;101113.13;5054196;28;20033;-55
2022/06/07 02:56:04;;;;;;;25.42;18.23;;;;;;;12.10;96.93;101116.19;5054097;28;20488;-55
2022/06/07 02:58:30;;;;;;;25.17;17.92;;;;;;;12.12;96.75;101117.53;5053907;28;20037;-53
2022/06/07 03:00:58;;;;;;;25.02;17.13;;;;;;;12.08;96.52;101121.25;5054146;28;20029;-52
2022/06/07 03:03:23;;;;;;;24.25;16.17;;;;;;;12.08;96.30;101113.72;5053020;28;20028;-54
2022/06/07 03:05:49;;;;;;;24.73;16.60;;;;;;;12.07;95.84;101125.16;5054078;28;20035;-54
2022/06/07 03:08:17;;;;;;;25.08;16.30;;;;;;;12.04;96.42;101117.44;5052339;28;20033;-53
2022/06/07 03:10:42;;;;;;;24.75;16.80;;;;;;;12.03;95.69;101113.84;5053196;28;20463;-53
2022/06/07 03:13:08;;;;;;;24.48;16.50;;;;;;;12.00;95.70;101122.78;5052809;28;20112;-56
2022/06/07 03:15:33;;;;;;;24.77;15.55;;;;;;;11.93;95.66;101117.63;5052646;28;20017;-52
2022/06/07 03:17:58;;;;;;;24.98;16.38;;;;;;;11.90;96.07;101125.72;5052903;28;20039;-51
2022/06/07 03:20:24;;;;;;;24.10;16.02;;;;;;;11.92;95.52;101121.50;5053056;28;20052;-54
2022/06/07 03:22:49;;;;;;;24.42;16.60;;;;;;;11.89;96.02;101126.84;5052887;28;20091;-55
2022/06/07 03:25:14;;;;;;;23.17;15.95;;;;;;;11.88;95.15;101126.03;5053542;28;20079;-53
2022/06/07 03:27:40;;;;;;;24.98;15.30;;;;;;;11.89;95.95;101132.41;5053132;28;20403;-55
2022/06/07 03:30:08;;;;;;;23.70;15.73;;;;;;;11.83;95.78;101126.13;5052674;28;20517;-53
2022/06/07 03:32:34;;;;;;;25.23;15.05;;;;;;;11.82;95.46;101141.97;5052622;28;20075;-54
2022/06/07 03:35:00;;;;;;;25.27;15.00;;;;;;;11.83;94.92;101135.28;5053015;28;20238;-55
2022/06/07 03:37:25;;;;;;;21.70;15.02;;;;;;;11.83;95.08;101137.22;5052868;28;20468;-54
2022/06/07 03:39:53;;;;;;;23.65;14.50;;;;;;;11.81;94.68;101143.09;5053176;28;20114;-55
2022/06/07 03:42:19;;;;;;;22.98;15.05;;;;;;;11.85;94.09;101148.81;5053011;28;20025;-55
2022/06/07 03:44:50;;;;;;;24.00;14.30;;;;;;;11.85;94.17;101149.63;5052891;28;20036;-52
2022/06/07 03:47:19;;;;;;;22.60;15.20;;;;;;;11.82;94.77;101143.88;5052657;28;20040;-54
2022/06/07 03:49:46;;;;;;;22.23;14.82;;;;;;;11.78;94.59;101148.41;5052732;28;20039;-54
2022/06/07 03:52:11;;;;;;;22.85;15.23;;;;;;;11.80;94.57;101151.72;5052934;28;20032;-53
2022/06/07 03:54:38;;;;;;;23.85;15.13;;;;;;;11.80;94.00;101149.75;5052130;28;20021;-55
2022/06/07 03:57:04;;;;;;;22.40;14.75;;;;;;;11.84;94.28;101155.50;5052982;28;20079;-55
2022/06/07 03:59:29;;;;;;;22.80;14.05;;;;;;;11.86;93.44;101158.78;5053009;28;20143;-58
2022/06/07 04:01:55;;;;;;;24.27;14.95;;;;;;;11.88;93.49;101159.31;5052918;28;20027;-54
2022/06/07 04:04:20;;;;;;;22.45;14.90;;;;;;;11.88;93.05;101166.78;5051791;28;20464;-54
2022/06/07 04:09:39;;;;;;;22.92;14.82;;;;;;;11.93;92.58;101159.19;5052382;28;20110;-56
2022/06/07 04:12:15;;;;;;;23.67;14.40;;;;;;;11.91;92.73;101155.09;5052021;28;20052;-52
2022/06/07 04:14:43;;;;;;;21.67;15.02;;;;;;;11.88;92.97;101151.00;5051983;28;20142;-56
2022/06/07 04:17:10;;;;;;;22.77;14.68;;;;;;;11.92;92.20;101156.75;5052643;28;20029;-55
2022/06/07 04:19:37;;;;;;;26.15;15.13;;;;;;;11.88;92.63;101153.78;5052237;28;20025;-55
2022/06/07 04:22:04;;;;;;;23.60;14.95;;;;;;;11.91;92.89;101161.44;5052460;28;20475;-56
2022/06/07 04:24:30;;;;;;;23.35;14.60;;;;;;;11.94;92.94;101157.25;5052168;28;20029;-56
2022/06/07 04:26:55;;;;;;;21.05;14.02;;;;;;;11.90;92.17;101151.53;5051597;28;20052;-55
2022/06/07 04:29:20;;;;;;;21.60;13.73;;;;;;;11.95;92.33;101153.38;5051681;28;20478;-55
2022/06/07 04:31:46;;;;;;;23.15;15.20;;;;;;;11.92;92.89;101156.75;5051375;28;20100;-55
2022/06/07 04:34:11;;;;;;;22.10;13.77;;;;;;;11.93;92.90;101159.19;5051448;28;20218;-53
2022/06/07 04:36:37;;;;;;;22.17;14.52;;;;;;;12.04;91.67;101162.63;5051593;28;20419;-54
2022/06/07 04:39:05;;;;;;;21.85;14.18;;;;;;;12.04;92.33;101168.19;5052072;28;20526;-55
2022/06/07 04:41:32;;;;;;;21.67;12.98;;;;;;;12.06;92.17;101165.91;5051419;28;20033;-55
2022/06/07 04:43:58;;;;;;;23.13;13.93;;;;;;;12.07;92.50;101163.97;5052062;28;20037;-56
2022/06/07 04:46:25;;;;;;;22.30;14.85;;;;;;;12.09;92.34;101179.16;5051868;28;20027;-54
2022/06/07 04:48:52;;;;;;;23.50;14.55;;;;;;;12.11;91.81;101174.13;5051494;28;20108;-56
2022/06/07 04:51:19;;;;;;;21.92;14.57;;;;;;;12.05;92.35;101167.03;5051065;28;20025;-55
2022/06/07 04:53:45;;;;;;;22.08;13.95;;;;;;;12.13;92.89;101177.44;5051511;28;20039;-55
2022/06/07 04:56:14;;;;;;;22.50;14.52;;;;;;;12.15;92.08;101174.34;5051426;28;20107;-55
2022/06/07 04:58:39;;;;;;;24.25;14.68;;;;;;;12.19;91.25;101175.34;5051812;28;20021;-56
2022/06/07 05:01:09;;;;;;;25.52;15.32;;;;;;;12.22;92.06;101182.25;5052304;28;20169;-55
2022/06/07 05:03:34;;;;;;;23.13;14.30;;;;;;;12.31;91.19;101175.66;5051922;28;20025;-55
2022/06/07 05:06:00;;;;;;;24.48;14.95;;;;;;;12.32;91.32;101176.50;5051946;28;20028;-56
2022/06/07 05:08:26;;;;;;;23.77;15.68;;;;;;;12.39;91.44;101187.97;5051748;28;20045;-56
2022/06/07 05:10:53;;;;;;;22.52;14.27;;;;;;;12.44;90.48;101185.09;5051651;28;20375;-56
2022/06/07 05:13:19;;;;;;;22.52;14.90;;;;;;;12.46;90.98;101188.38;5052223;28;20036;-57
2022/06/07 05:15:52;;;;;;;24.40;13.93;;;;;;;12.50;90.25;101182.22;5043498;28;20021;-56
2022/06/07 05:18:18;;;;;;;23.88;14.18;;;;;;;12.57;90.58;101185.38;5031601;28;20025;-56
2022/06/07 05:20:44;;;;;;;24.10;15.07;;;;;;;12.58;90.35;101192.56;5031752;28;20044;-55
2022/06/07 05:23:09;;;;;;;23.85;15.40;;;;;;;12.62;90.45;101185.25;5031795;28;20122;-56
2022/06/07 05:25:34;;;;;;;26.48;15.32;;;;;;;12.64;90.38;101188.53;5031678;28;20053;-56
2022/06/07 05:28:00;;;;;;;24.20;15.45;;;;;;;12.66;91.17;101185.47;5034973;28;20049;-56
2022/06/07 05:30:25;;;;;;;24.77;15.77;;;;;;;12.68;91.13;101180.41;5035719;28;20033;-56
2022/06/07 05:32:50;;;;;;;24.80;15.80;;;;;;;12.74;91.29;101193.88;5036031;28;20025;-57
2022/06/07 05:35:16;;;;;;;23.35;14.93;;;;;;;12.76;90.99;101183.28;5035898;28;20179;-57
2022/06/07 05:37:42;;;;;;;24.90;16.20;;;;;;;12.75;90.94;101189.97;5035794;28;20021;-58
2022/06/07 05:40:08;;;;;;;25.10;15.07;;;;;;;12.82;90.59;101189.53;5035544;28;20030;-57
2022/06/07 05:42:33;;;;;;;23.38;15.43;;;;;;;12.84;90.19;101184.50;5035438;28;20094;-56
2022/06/07 05:44:59;;;;;;;24.77;16.52;;;;;;;12.85;90.02;101183.34;5035935;28;20059;-54
2022/06/07 05:47:24;;;;;;;25.20;15.02;;;;;;;12.89;89.79;101178.81;5035783;28;20388;-54
2022/06/07 05:49:49;;;;;;;25.63;15.68;;;;;;;12.94;89.85;101183.44;5035267;28;20064;-55
2022/06/07 05:52:15;;;;;;;26.10;16.08;;;;;;;12.98;89.76;101184.44;5035034;28;20033;-56
2022/06/07 05:54:40;;;;;;;25.55;15.90;;;;;;;13.00;89.06;101184.94;5035175;28;20033;-56
2022/06/07 05:57:07;;;;;;;26.10;15.88;;;;;;;13.04;89.67;101196.22;5034779;28;20029;-56
2022/06/07 05:59:33;;;;;;;26.80;16.42;;;;;;;13.06;89.29;101180.09;5035632;28;20526;-54
2022/06/07 06:01:59;;;;;;;25.65;16.77;;;;;;;13.07;89.37;101181.72;5035978;28;20041;-56
2022/06/07 06:04:27;;;;;;;27.00;16.95;;;;;;;13.08;89.88;101180.59;5035046;28;20017;-52
2022/06/07 06:06:58;;;;;;;27.70;18.52;;;;;;;13.11;90.05;101191.88;5034417;28;20060;-56
2022/06/07 06:12:08;;;;;;;27.45;17.10;;;;;;;13.23;89.28;101187.72;5035393;28;20125;-55
2022/06/07 06:14:33;;;;;;;26.73;18.10;;;;;;;13.29;89.50;101186.47;5033221;28;20108;-54
2022/06/07 06:16:59;;;;;;;27.50;17.92;;;;;;;13.36;88.82;101191.56;5029445;28;20085;-55
2022/06/07 06:19:24;;;;;;;27.30;18.65;;;;;;;13.40;88.69;101192.63;5031831;28;20021;-55
2022/06/07 06:21:49;;;;;;;26.85;18.23;;;;;;;13.41;88.82;101195.06;5032555;28;20377;-56
2022/06/07 06:24:17;;;;;;;26.90;17.77;;;;;;;13.50;88.70;101195.16;5032802;28;20041;-56
2022/06/07 06:26:43;;;;;;;27.58;18.08;;;;;;;13.55;88.11;101189.44;5031483;28;20057;-54
2022/06/07 06:29:09;;;;;;;28.85;17.85;;;;;;;13.62;87.59;101193.72;5032259;28;20032;-57
2022/06/07 06:31:36;;;;;;;28.75;18.52;;;;;;;13.70;86.92;101193.78;5032689;28;20471;-56
2022/06/07 06:34:02;;;;;;;28.75;18.38;;;;;;;13.76;86.80;101199.19;5032564;28;20059;-56
2022/06/07 06:36:29;;;;;;;29.50;18.75;;;;;;;13.85;85.87;101188.94;5032661;28;20041;-56
2022/06/07 06:38:55;;;;;;;31.25;18.60;;;;;;;13.91;85.46;101178.47;5032496;28;20030;-56
2022/06/07 06:41:23;;;;;;;28.67;18.63;;;;;;;14.01;86.19;101181.81;5034632;28;20060;-57
2022/06/07 06:43:49;;;;;;;28.98;18.52;;;;;;;14.24;86.70;101192.84;5034743;28;20108;-57
2022/06/07 06:46:18;;;;;;;29.27;18.20;;;;;;;14.42;85.76;101185.38;5034830;28;20052;-61
2022/06/07 06:48:44;;;;;;;29.90;19.38;;;;;;;14.65;85.03;101194.41;5034730;28;20025;-57
2022/06/07 06:51:11;;;;;;;27.75;19.08;;;;;;;14.85;83.53;101194.13;5034452;28;20037;-57
2022/06/07 06:53:38;;;;;;;31.38;19.75;;;;;;;15.00;82.42;101190.88;5034409;28;20033;-58
2022/06/07 06:56:04;;;;;;;30.50;19.77;;;;;;;15.16;82.67;101187.56;5034245;28;20032;-57
2022/06/07 06:58:30;;;;;;;31.23;20.77;;;;;;;15.22;83.00;101195.44;5034327;28;20045;-57
2022/06/07 07:01:11;;;;;;;32.85;20.75;;;;;;;15.36;82.99;101189.69;5034035;28;20033;-56
2022/06/07 07:03:38;;;;;;;30.67;20.27;;;;;;;15.46;81.35;101188.50;5034315;28;20067;-54
2022/06/07 07:06:06;;;;;;;30.38;20.50;;;;;;;15.56;81.48;101190.13;5034465;28;20041;-57
2022/06/07 07:08:33;;;;;;;29.80;20.33;;;;;;;15.57;81.44;101202.94;5034305;28;20128;-56
2022/06/07 07:11:08;;;;;;;32.72;21.80;;;;;;;15.50;81.39;101200.66;5034140;28;20029;-55
2022/06/07 07:13:34;;;;;;;32.10;21.48;;;;;;;15.41;81.65;101200.66;5034295;28;20147;-56
2022/06/07 07:15:59;;;;;;;32.20;22.40;;;;;;;15.38;82.12;101203.28;5033821;28;20037;-56
2022/06/07 07:18:25;;;;;;;32.50;22.20;;;;;;;15.37;83.49;101202.47;5033773;28;20545;-57
2022/06/07 07:20:51;;;;;;;31.60;22.10;;;;;;;15.41;82.80;101199.84;5034070;28;20374;-57
2022/06/07 07:23:17;;;;;;;33.20;22.83;;;;;;;15.48;81.74;101197.38;5033847;28;20499;-56
2022/06/07 07:25:42;;;;;;;29.80;21.73;;;;;;;15.52;82.17;101203.94;5033946;28;20045;-57
2022/06/07 07:28:08;;;;;;;33.55;22.90;;;;;;;15.61;82.04;101203.91;5033572;28;20405;-57
2022/06/07 07:30:33;;;;;;;32.35;21.60;;;;;;;15.75;80.95;101210.09;5033499;28;20121;-56
2022/06/07 07:32:59;;;;;;;31.77;21.67;;;;;;;15.83;79.99;101207.63;5033811;28;20100;-56
2022/06/07 07:35:25;;;;;;;31.90;22.23;;;;;;;15.89;80.28;101201.56;5033973;28;20095;-57
2022/06/07 07:37:50;;;;;;;32.63;23.35;;;;;;;15.92;80.56;101197.28;5038901;28;20029;-57
2022/06/07 07:40:16;;;;;;;33.10;23.83;;;;;;;16.00;80.30;101199.22;5032917;28;20427;-57
2022/06/07 07:42:41;;;;;;;33.35;24.40;;;;;;;16.05;79.89;101201.81;5031792;28;20025;-57
2022/06/07 07:45:08;;;;;;;32.72;23.60;;;;;;;16.06;79.45;101208.22;5030269;28;20168;-56
2022/06/07 07:47:34;;;;;;;32.67;23.33;;;;;;;16.11;79.60;101210.81;5031274;28;20400;-56
2022/06/07 07:49:59;;;;;;;33.75;25.27;;;;;;;16.11;79.12;101205.22;5030524;28;20021;-56
2022/06/07 07:52:25;;;;;;;32.97;24.75;;;;;;;16.25;79.83;101201.41;5031124;28;20040;-56
2022/06/07 07:54:51;;;;;;;30.77;23.23;;;;;;;16.38;77.96;101203.94;5031164;28;20025;-56
2022/06/07 07:57:16;;;;;;;30.73;22.58;;;;;;;16.39;77.77;101204.75;5031185;28;20434;-56
2022/06/07 07:59:41;;;;;;;30.80;23.90;;;;;;;16.37;77.68;101207.88;5031170;28;20037;-56
2022/06/07 08:02:17;;;;;;;33.17;25.38;;;;;;;16.41;77.87;101198.84;5031264;28;20082;-57
2022/06/07 08:04:42;;;;;;;34.70;27.05;;;;;;;16.55;77.82;101205.00;5030790;28;20029;-56
2022/06/07 08:07:08;;;;;;;33.50;25.77;;;;;;;16.81;76.04;101206.81;5030996;28;20029;-56
2022/06/07 08:09:33;;;;;;;33.20;24.85;;;;;;;16.91;74.89;101199.97;5031066;28;20029;-54
2022/06/07 08:12:05;;;;;;;35.35;25.85;;;;;;;17.00;74.77;101211.94;5031091;28;20152;-56
2022/06/07 08:14:31;;;;;;;31.67;25.25;;;;;;;17.16;73.99;101203.75;5029267;28;20269;-55
2022/06/07 08:16:56;;;;;;;36.85;25.95;;;;;;;17.16;74.21;101206.53;5030694;28;20042;-55
2022/06/07 08:19:22;;;;;;;34.75;27.38;;;;;;;17.04;73.79;101204.50;5030615;28;20029;-55
2022/06/07 08:21:47;;;;;;;34.58;25.40;;;;;;;16.99;74.60;101202.75;5030826;28;20071;-55
2022/06/07 08:24:12;;;;;;;33.25;26.65;;;;;;;17.00;74.35;101195.16;5031258;28;20033;-56
2022/06/07 08:26:38;;;;;;;32.75;26.15;;;;;;;17.04;74.64;101206.47;5030352;28;20049;-56
2022/06/07 08:29:04;;;;;;;33.08;26.77;;;;;;;17.02;74.51;101209.63;5029485;28;20035;-55
2022/06/07 08:31:32;;;;;;;32.03;26.85;;;;;;;16.95;73.91;101198.19;5030502;28;20054;-55
2022/06/07 08:39:27;;;;;;;33.17;25.23;;;;;;;17.06;73.91;101206.97;5050770;28;20170;-55
2022/06/07 08:42:32;;;;;;;35.17;26.65;;;;;;;17.24;74.09;101199.25;5050377;28;20067;-56
2022/06/07 08:45:08;;;;;;;30.45;23.65;;;;;;;17.51;72.85;101205.41;5037190;28;20068;-53
2022/06/07 08:47:38;;;;;;;30.50;24.20;;;;;;;17.51;71.62;101200.59;5049960;28;20029;-57
2022/06/07 08:50:32;;;;;;;32.65;24.08;;;;;;;17.67;71.55;101206.38;5050255;28;20029;-59
2022/06/07 08:53:03;;;;;;;31.52;23.27;;;;;;;17.65;71.10;101186.31;5050393;28;20033;-56
2022/06/07 08:55:41;;;;;;;32.13;24.08;;;;;;;17.83;71.16;101200.09;5050809;28;20128;-55
2022/06/07 08:58:18;;;;;;;30.05;25.17;;;;;;;17.98;70.35;101193.88;5049990;28;20495;-55
2022/06/07 09:00:58;;;;;;;33.95;26.30;;;;;;;18.10;69.88;101193.03;5049513;28;20151;-55
2022/06/07 09:03:38;;;;;;;32.55;25.77;;;;;;;18.11;69.72;101188.25;5050204;28;20075;-56
2022/06/07 09:06:13;;;;;;;30.65;26.08;;;;;;;18.17;68.43;101195.28;5048600;28;20122;-55
2022/06/07 09:08:44;;;;;;;32.17;26.73;;;;;;;18.31;69.14;101190.13;5049834;28;20124;-56
2022/06/07 09:14:06;;;;;;;29.60;25.40;;;;;;;18.84;68.48;101192.94;5050046;28;20149;-55
2022/06/07 09:16:37;;;;;;;32.22;27.05;;;;;;;18.98;66.71;101183.38;5048051;28;20148;-58
2022/06/07 09:19:09;;;;;;;26.95;21.75;;;;;;;19.00;66.30;101189.41;5050058;28;20068;-55
2022/06/07 09:21:39;;;;;;;29.13;24.88;;;;;;;18.80;65.49;101197.63;5050022;28;20029;-56
2022/06/07 09:24:11;;;;;;;31.08;27.25;;;;;;;18.82;66.64;101188.88;5050042;28;20544;-56
2022/06/07 09:26:39;;;;;;;30.50;26.15;;;;;;;18.98;64.95;101200.19;5049722;28;20052;-56
2022/06/07 09:29:13;;;;;;;28.73;25.63;;;;;;;19.00;65.01;101189.41;5049775;28;20045;-54
2022/06/07 09:31:41;;;;;;;29.90;26.13;;;;;;;19.00;64.49;101187.44;5049876;28;20036;-56
2022/06/07 09:34:09;;;;;;;32.05;25.80;;;;;;;19.04;63.73;101192.31;5049750;28;20021;-55
2022/06/07 09:36:43;;;;;;;30.55;26.45;;;;;;;19.10;65.33;101188.13;5049942;28;20547;-55
2022/06/07 09:39:17;;;;;;;31.55;27.00;;;;;;;19.13;65.88;101179.81;5049953;28;20025;-56
2022/06/07 09:41:47;;;;;;;29.55;25.80;;;;;;;19.18;64.28;101181.53;5049316;28;20025;-56
2022/06/07 09:44:21;;;;;;;29.58;26.38;;;;;;;19.09;64.44;101184.47;5049636;28;20094;-54
2022/06/07 09:46:57;;;;;;;28.33;24.95;;;;;;;19.15;64.97;101185.88;5049394;28;20029;-58
2022/06/07 09:49:31;;;;;;;29.70;26.13;;;;;;;19.24;63.64;101184.91;5049928;28;20112;-55
2022/06/07 09:52:17;;;;;;;29.33;26.05;;;;;;;19.32;63.35;101187.53;5049679;28;20036;-56
2022/06/07 09:54:45;;;;;;;29.50;25.42;;;;;;;19.21;62.76;101180.84;5049906;28;20108;-55
2022/06/07 09:57:36;;;;;;;29.77;26.40;;;;;;;19.32;63.67;101186.72;5049250;28;20455;-56
2022/06/07 10:00:21;;;;;;;28.55;25.23;;;;;;;19.42;63.00;101183.41;5049341;28;20032;-54
2022/06/07 10:03:10;;;;;;;29.23;25.45;;;;;;;19.39;62.30;101163.69;5049137;28;20164;-54
2022/06/07 10:05:54;;;;;;;29.77;25.63;;;;;;;19.46;61.99;101170.28;5050178;28;20029;-55
2022/06/07 10:08:37;;;;;;;29.30;26.15;;;;;;;19.41;62.57;101175.38;5049692;28;20049;-56
2022/06/07 10:11:13;;;;;;;30.10;25.95;;;;;;;19.44;62.23;101175.47;5048763;28;20694;-56
2022/06/07 10:13:58;;;;;;;28.42;25.23;;;;;;;19.36;61.71;101165.22;5051631;28;20064;-57
2022/06/07 10:16:30;;;;;;;27.08;23.38;;;;;;;19.41;61.62;101169.75;5050832;28;20449;-54
2022/06/07 10:19:04;;;;;;;27.83;23.50;;;;;;;19.30;62.09;101169.44;5052704;28;20395;-56
2022/06/07 10:21:40;;;;;;;27.88;23.45;;;;;;;19.30;61.97;101159.06;5052715;28;20401;-56
2022/06/07 10:24:19;;;;;;;31.73;25.63;;;;;;;19.46;62.57;101164.66;5053036;28;20041;-56
2022/06/07 10:26:50;;;;;;;28.73;25.10;;;;;;;19.65;61.90;101154.72;5052998;28;20155;-55
2022/06/07 10:29:28;;;;;;;29.15;25.58;;;;;;;19.84;61.82;101150.41;5052796;28;20121;-55
2022/06/07 10:32:16;;;;;;;27.13;23.65;;;;;;;19.90;60.39;101151.78;5052503;28;20036;-55
2022/06/07 10:34:51;;;;;;;28.00;22.95;;;;;;;19.99;59.35;101148.78;5052643;28;20049;-55
2022/06/07 10:37:25;;;;;;;26.55;20.73;;;;;;;20.08;59.07;101150.25;5052758;28;20032;-54
2022/06/07 10:40:08;;;;;;;25.58;21.67;;;;;;;20.11;59.82;101148.69;5052537;28;20451;-56
2022/06/07 10:42:56;;;;;;;25.15;20.90;;;;;;;20.05;59.20;101152.97;5052876;28;20025;-55
2022/06/07 10:45:32;;;;;;;25.88;20.95;;;;;;;19.88;59.44;101151.34;5052433;28;20372;-58
2022/06/07 10:48:24;;;;;;;26.65;21.75;;;;;;;19.67;60.16;101154.38;5052581;28;20056;-55
2022/06/07 10:51:07;;;;;;;28.67;23.55;;;;;;;19.46;61.12;101149.84;5052447;28;20356;-55
2022/06/07 10:53:43;;;;;;;26.70;22.77;;;;;;;19.33;62.67;101154.72;5052347;28;20025;-55
2022/06/07 10:56:29;;;;;;;26.25;21.75;;;;;;;19.33;62.39;101151.91;5052217;28;20048;-55
2022/06/07 10:58:59;;;;;;;26.83;22.10;;;;;;;19.20;62.00;101148.34;5052138;28;20032;-55
2022/06/07 11:01:41;;;;;;;25.35;22.00;;;;;;;19.39;62.23;101152.47;5052307;28;20374;-54
2022/06/07 11:10:22;;;;;;;25.50;22.42;;;;;;;19.75;60.41;101130.94;5052541;28;20513;-55
2022/06/07 11:12:52;;;;;;;24.55;20.58;;;;;;;19.84;60.31;101139.19;5052520;28;20043;-56
2022/06/07 11:15:34;;;;;;;25.30;20.55;;;;;;;19.87;59.88;101138.47;5051602;28;20100;-54
2022/06/07 11:18:24;;;;;;;25.27;20.23;;;;;;;19.94;59.46;101130.22;5052655;28;20117;-57
2022/06/07 11:21:02;;;;;;;24.35;18.98;;;;;;;19.97;58.74;101135.13;5052553;28;20025;-57
2022/06/07 11:23:33;;;;;;;24.88;17.98;;;;;;;20.19;56.86;101132.84;5051451;28;20033;-55
2022/06/07 11:26:15;;;;;;;28.08;18.90;;;;;;;20.44;56.25;101146.63;5052011;28;20052;-54
2022/06/07 11:28:40;;;;;;;23.00;18.83;;;;;;;20.56;55.93;101135.28;5052788;28;20076;-57
2022/06/07 11:31:21;;;;;;;23.07;18.00;;;;;;;20.76;55.24;101133.31;5052673;28;20041;-57
2022/06/07 11:33:52;;;;;;;22.75;18.25;;;;;;;20.79;54.30;101138.19;5052154;28;20299;-54
2022/06/07 11:36:20;;;;;;;22.77;19.05;;;;;;;20.70;54.53;101141.19;5040456;28;20120;-55
2022/06/07 11:38:57;;;;;;;23.13;18.38;;;;;;;20.59;54.75;101140.16;5040690;28;20104;-54
2022/06/07 11:41:37;;;;;;;24.33;18.83;;;;;;;20.40;54.75;101138.91;5039632;28;20083;-55
2022/06/07 11:44:10;;;;;;;22.08;18.67;;;;;;;20.24;56.07;101146.56;5042574;28;20017;-56